createdAt,value
2019-05-14T00:00:42.276Z,99.90
2019-05-14T00:03:13.608Z,99.90
2019-05-14T00:05:43.324Z,99.90
2019-05-14T00:08:13.063Z,99.90
2019-05-14T00:10:42.784Z,99.90
2019-05-14T00:13:12.530Z,99.90
2019-05-14T00:15:42.315Z,99.90
2019-05-14T00:18:24.493Z,99.90
2019-05-14T00:20:54.256Z,99.90
2019-05-14T00:23:23.970Z,99.90
2019-05-14T00:25:53.726Z,99.90
2019-05-14T00:28:23.470Z,99.90
2019-05-14T00:30:53.200Z,99.90
2019-05-14T00:33:22.943Z,99.90
2019-05-14T00:35:53.676Z,99.90
2019-05-14T00:38:23.488Z,99.90
2019-05-14T00:40:53.234Z,99.90
2019-05-14T00:43:23.014Z,99.90
2019-05-14T00:45:52.739Z,99.90
2019-05-14T00:48:22.506Z,99.90
2019-05-14T00:50:52.270Z,99.90
2019-05-14T00:53:22.007Z,99.90
2019-05-14T00:55:51.835Z,99.90
2019-05-14T00:58:21.904Z,99.90
2019-05-14T01:00:52.490Z,99.90
2019-05-14T01:03:22.504Z,99.90
2019-05-14T01:05:52.501Z,99.90
2019-05-14T01:08:22.318Z,99.90
2019-05-14T01:10:53.153Z,99.90
2019-05-14T01:13:22.927Z,99.90
2019-05-14T01:15:52.657Z,99.90
2019-05-14T01:18:22.485Z,99.90
2019-05-14T01:20:52.234Z,99.90
2019-05-14T01:23:21.959Z,99.90
2019-05-14T01:25:51.880Z,99.90
2019-05-14T01:28:21.800Z,99.90
2019-05-14T01:30:51.937Z,99.90
2019-05-14T01:33:21.910Z,99.90
2019-05-14T01:35:51.696Z,99.90
2019-05-14T01:38:22.122Z,99.90
2019-05-14T01:40:52.555Z,99.90
2019-05-14T01:43:22.955Z,99.90
2019-05-14T01:45:52.712Z,99.90
2019-05-14T01:48:22.449Z,99.90
2019-05-14T01:50:52.272Z,99.90
2019-05-14T01:53:22.184Z,99.90
2019-05-14T01:55:52.193Z,99.90
2019-05-14T01:58:23.055Z,99.90
2019-05-14T02:00:52.893Z,99.90
2019-05-14T02:03:22.798Z,99.90
2019-05-14T02:05:53.570Z,99.90
2019-05-14T02:08:23.297Z,99.90
2019-05-14T02:10:53.036Z,99.90
2019-05-14T02:13:22.763Z,99.90
2019-05-14T02:15:52.548Z,99.90
2019-05-14T02:18:22.364Z,99.90
2019-05-14T02:20:52.328Z,99.90
2019-05-14T02:23:22.649Z,99.90
2019-05-14T02:25:52.592Z,99.90
2019-05-14T02:28:22.333Z,99.90
2019-05-14T02:30:57.945Z,99.90
2019-05-14T02:33:23.445Z,99.90
2019-05-14T02:35:53.172Z,99.90
2019-05-14T02:38:22.920Z,99.90
2019-05-14T02:40:52.684Z,99.90
2019-05-14T02:43:22.412Z,99.90
2019-05-14T02:46:09.574Z,99.90
2019-05-14T02:48:24.015Z,99.90
2019-05-14T02:50:53.747Z,99.90
2019-05-14T02:53:23.562Z,99.90
2019-05-14T02:55:54.332Z,99.90
2019-05-14T02:58:24.067Z,99.90
2019-05-14T03:00:53.798Z,99.90
2019-05-14T03:03:23.534Z,99.90
2019-05-14T03:05:53.285Z,99.90
2019-05-14T03:08:23.500Z,99.90
2019-05-14T03:10:53.393Z,99.90
2019-05-14T03:13:23.211Z,99.90
2019-05-14T03:15:53.576Z,99.90
2019-05-14T03:18:23.338Z,99.90
2019-05-14T03:20:53.065Z,99.90
2019-05-14T03:23:23.445Z,99.90
2019-05-14T03:25:53.382Z,99.90
2019-05-14T03:28:23.158Z,99.90
2019-05-14T03:30:53.513Z,99.90
2019-05-14T03:33:23.340Z,99.90
2019-05-14T03:36:01.256Z,99.90
2019-05-14T03:38:24.423Z,99.90
2019-05-14T03:40:54.171Z,99.90
2019-05-14T03:43:23.918Z,99.90
2019-05-14T03:45:59.007Z,99.90
2019-05-14T03:48:29.739Z,99.90
2019-05-14T03:51:00.500Z,99.90
2019-05-14T03:53:30.439Z,99.90
2019-05-14T03:56:00.885Z,99.90
2019-05-14T03:58:30.774Z,99.90
2019-05-14T04:01:02.274Z,99.90
2019-05-14T04:03:32.498Z,99.90
2019-05-14T04:06:04.059Z,99.90
2019-05-14T04:08:35.210Z,99.90
2019-05-14T04:11:04.952Z,99.90
2019-05-14T04:13:40.564Z,99.90
2019-05-14T04:16:13.084Z,99.90
2019-05-14T04:18:50.035Z,99.90
2019-05-14T04:21:20.619Z,99.90
2019-05-14T04:23:51.284Z,99.90
2019-05-14T04:26:21.821Z,99.90
2019-05-14T04:28:51.923Z,99.90
2019-05-14T04:31:21.781Z,99.90
2019-05-14T04:33:52.028Z,99.90
2019-05-14T04:36:21.748Z,99.90
2019-05-14T04:38:55.310Z,99.90
2019-05-14T04:41:22.969Z,99.90
2019-05-14T04:43:52.741Z,99.90
2019-05-14T04:46:22.484Z,99.90
2019-05-14T04:48:52.334Z,99.90
2019-05-14T04:51:22.085Z,99.90
2019-05-14T04:53:51.823Z,99.90
2019-05-14T04:56:21.569Z,99.90
2019-05-14T04:58:51.291Z,99.90
2019-05-14T05:01:21.907Z,99.90
2019-05-14T05:03:51.656Z,99.90
2019-05-14T05:06:21.429Z,99.90
2019-05-14T05:08:51.158Z,99.90
2019-05-14T05:11:21.670Z,99.90
2019-05-14T05:13:52.524Z,99.90
2019-05-14T05:16:22.264Z,99.90
2019-05-14T05:18:52.027Z,99.90
2019-05-14T05:21:21.764Z,99.90
2019-05-14T05:23:51.510Z,99.90
2019-05-14T05:26:21.527Z,99.90
2019-05-14T05:29:02.980Z,99.90
2019-05-14T05:31:22.666Z,99.90
2019-05-14T05:33:52.383Z,99.90
2019-05-14T05:36:22.122Z,99.90
2019-05-14T05:38:51.868Z,99.90
2019-05-14T05:41:21.623Z,99.90
2019-05-14T05:43:52.236Z,99.90
2019-05-14T05:46:21.970Z,99.90
2019-05-14T05:48:51.730Z,99.90
2019-05-14T05:51:21.486Z,99.90
2019-05-14T05:53:51.212Z,99.90
2019-05-14T05:56:20.957Z,99.90
2019-05-14T05:58:50.684Z,99.90
2019-05-14T06:01:20.479Z,99.90
2019-05-14T06:03:50.198Z,99.90
2019-05-14T06:06:19.956Z,99.90
2019-05-14T06:08:49.688Z,99.90
2019-05-14T06:11:19.724Z,99.90
2019-05-14T06:13:49.590Z,99.90
2019-05-14T06:16:19.342Z,99.90
2019-05-14T06:18:49.095Z,99.90
2019-05-14T06:21:19.426Z,99.90
2019-05-14T06:23:49.703Z,99.90
2019-05-14T06:26:19.697Z,99.90
2019-05-14T06:28:49.933Z,99.90
2019-05-14T06:31:19.824Z,99.90
2019-05-14T06:33:49.569Z,99.90
2019-05-14T06:36:19.789Z,99.90
2019-05-14T06:38:49.954Z,99.90
2019-05-14T06:41:19.734Z,99.90
2019-05-14T06:43:49.491Z,99.90
2019-05-14T06:46:19.606Z,99.90
2019-05-14T06:48:49.479Z,99.90
2019-05-14T06:51:20.206Z,99.90
2019-05-14T06:53:50.280Z,99.90
2019-05-14T06:56:21.770Z,99.90
2019-05-14T06:58:52.571Z,99.90
2019-05-14T07:01:22.327Z,99.90
2019-05-14T07:03:52.062Z,99.90
2019-05-14T07:06:22.178Z,99.90
2019-05-14T07:08:52.786Z,99.90
2019-05-14T07:11:22.675Z,99.90
2019-05-14T07:13:52.462Z,99.90
2019-05-14T07:16:22.194Z,99.90
2019-05-14T07:18:54.190Z,99.90
2019-05-14T07:21:23.260Z,99.90
2019-05-14T07:23:53.284Z,99.90
2019-05-14T07:26:23.041Z,99.90
2019-05-14T07:28:52.774Z,99.90
2019-05-14T07:31:22.521Z,99.90
2019-05-14T07:33:52.263Z,99.90
2019-05-14T07:36:21.994Z,99.90
2019-05-14T07:38:51.762Z,99.90
2019-05-14T07:41:21.490Z,99.90
2019-05-14T07:43:51.235Z,99.90
2019-05-14T07:46:20.969Z,99.90
2019-05-14T07:49:04.256Z,99.90
2019-05-14T07:51:22.095Z,99.90
2019-05-14T07:53:51.805Z,99.90
2019-05-14T07:56:21.551Z,99.90
2019-05-14T07:58:51.271Z,99.90
2019-05-14T08:01:21.005Z,99.90
2019-05-14T08:03:50.778Z,99.90
2019-05-14T08:06:20.822Z,99.90
2019-05-14T08:08:50.549Z,99.90
2019-05-14T08:11:20.271Z,99.90
2019-05-14T08:13:50.010Z,99.90
2019-05-14T08:16:19.740Z,99.90
2019-05-14T08:18:49.469Z,99.90
2019-05-14T08:21:19.696Z,99.90
2019-05-14T08:23:49.615Z,99.90
2019-05-14T08:26:19.519Z,99.90
2019-05-14T08:28:49.395Z,99.90
2019-05-14T08:31:19.130Z,99.90
2019-05-14T08:33:49.290Z,99.90
2019-05-14T08:36:19.225Z,99.80
2019-05-14T08:38:50.158Z,99.90
2019-05-14T08:41:20.174Z,99.90
2019-05-14T08:43:50.027Z,99.90
2019-05-14T08:46:19.761Z,99.90
2019-05-14T08:48:49.905Z,99.90
2019-05-14T08:51:19.767Z,99.90
2019-05-14T08:53:50.534Z,99.90
2019-05-14T08:56:20.575Z,99.90
2019-05-14T08:58:50.295Z,99.90
2019-05-14T09:01:20.052Z,99.90
2019-05-14T09:03:49.961Z,99.90
2019-05-14T09:06:19.810Z,99.90
2019-05-14T09:08:50.147Z,99.90
2019-05-14T09:11:24.178Z,99.90
2019-05-14T09:13:51.354Z,99.90
2019-05-14T09:16:38.069Z,99.90
2019-05-14T09:19:11.771Z,99.90
2019-05-14T09:21:41.503Z,98.50
2019-05-14T09:24:12.088Z,99.60
2019-05-14T09:26:41.803Z,98.50
2019-05-14T09:29:22.094Z,98.30
2019-05-14T09:31:43.059Z,99.30
2019-05-14T09:34:12.766Z,99.00
2019-05-14T09:36:43.649Z,99.10
2019-05-14T09:39:13.375Z,98.50
2019-05-14T09:41:43.115Z,99.80
2019-05-14T09:44:12.839Z,98.70
2019-05-14T09:46:42.572Z,97.80
2019-05-14T09:49:12.311Z,97.80
2019-05-14T09:51:42.023Z,98.00
2019-05-14T09:54:11.742Z,98.50
2019-05-14T09:56:41.616Z,98.10
2019-05-14T09:59:11.338Z,96.80
2019-05-14T10:01:41.939Z,97.80
2019-05-14T10:04:11.666Z,97.40
2019-05-14T10:06:41.389Z,98.20
2019-05-14T10:09:11.155Z,98.90
2019-05-14T10:11:40.876Z,98.90
2019-05-14T10:14:10.662Z,99.50
2019-05-14T10:16:40.400Z,99.30
2019-05-14T10:19:10.146Z,99.50
2019-05-14T10:21:40.277Z,99.80
2019-05-14T10:24:10.003Z,99.10
2019-05-14T10:26:40.583Z,99.20
2019-05-14T10:29:10.296Z,99.20
2019-05-14T10:31:40.054Z,99.10
2019-05-14T10:34:09.789Z,99.00
2019-05-14T10:36:39.501Z,98.90
2019-05-14T10:39:09.555Z,98.60
2019-05-14T10:41:39.501Z,99.40
2019-05-14T10:44:09.365Z,98.80
2019-05-14T10:46:39.172Z,99.10
2019-05-14T10:49:19.958Z,99.30
2019-05-14T10:51:40.393Z,99.90
2019-05-14T10:54:21.208Z,99.80
2019-05-14T10:56:41.462Z,99.90
2019-05-14T10:59:11.203Z,99.80
2019-05-14T11:01:40.954Z,99.80
2019-05-14T11:04:10.711Z,99.90
2019-05-14T11:06:40.416Z,99.90
2019-05-14T11:09:22.691Z,99.90
2019-05-14T11:11:52.434Z,99.00
2019-05-14T11:14:22.186Z,99.30
2019-05-14T11:16:51.922Z,99.50
2019-05-14T11:19:21.664Z,99.30
2019-05-14T11:21:51.420Z,98.80
2019-05-14T11:24:21.138Z,99.10
2019-05-14T11:26:50.893Z,99.00
2019-05-14T11:29:20.624Z,98.90
2019-05-14T11:31:50.355Z,98.70
2019-05-14T11:34:20.128Z,99.50
2019-05-14T11:36:50.831Z,99.30
2019-05-14T11:39:20.598Z,99.50
2019-05-14T11:41:50.330Z,99.40
2019-05-14T11:44:20.071Z,99.60
2019-05-14T11:46:57.161Z,99.90
2019-05-14T11:49:21.179Z,99.30
2019-05-14T11:52:04.319Z,99.10
2019-05-14T11:54:23.690Z,98.90
2019-05-14T11:56:53.403Z,98.40
2019-05-14T11:59:23.974Z,99.10
2019-05-14T12:01:55.112Z,99.50
2019-05-14T12:04:24.986Z,99.30
2019-05-14T12:06:54.793Z,99.30
2019-05-14T12:09:24.569Z,99.70
2019-05-14T12:11:54.307Z,98.80
2019-05-14T12:14:24.049Z,99.00
2019-05-14T12:16:54.771Z,98.30
2019-05-14T12:19:24.502Z,98.90
2019-05-14T12:22:05.800Z,98.40
2019-05-14T12:24:29.001Z,98.20
2019-05-14T12:26:58.618Z,98.30
2019-05-14T12:29:29.358Z,98.60
2019-05-14T12:32:00.297Z,99.40
2019-05-14T12:34:30.051Z,99.70
2019-05-14T12:36:59.798Z,99.90
2019-05-14T12:39:29.584Z,99.90
2019-05-14T12:41:59.276Z,99.90
2019-05-14T12:44:29.280Z,99.90
2019-05-14T12:46:59.032Z,99.90
2019-05-14T12:49:28.774Z,99.90
2019-05-14T12:52:00.744Z,99.90
2019-05-14T12:54:29.981Z,99.90
2019-05-14T12:56:59.832Z,99.90
2019-05-14T12:59:29.936Z,99.90
2019-05-14T13:01:59.674Z,99.90
2019-05-14T13:04:29.412Z,99.90
2019-05-14T13:06:59.730Z,99.90
2019-05-14T13:09:29.726Z,99.90
2019-05-14T13:11:59.480Z,99.90
2019-05-14T13:14:29.218Z,99.90
2019-05-14T13:16:59.756Z,99.90
2019-05-14T13:19:29.778Z,99.90
2019-05-14T13:22:13.365Z,99.90
2019-05-14T13:24:31.175Z,99.90
2019-05-14T13:27:00.894Z,99.90
2019-05-14T13:29:31.533Z,99.90
2019-05-14T13:32:01.257Z,99.90
2019-05-14T13:34:31.997Z,99.90
2019-05-14T13:37:01.744Z,99.90
2019-05-14T13:39:31.475Z,99.90
2019-05-14T13:42:01.215Z,99.90
2019-05-14T13:44:30.938Z,99.90
2019-05-14T13:47:00.694Z,99.90
2019-05-14T13:49:30.508Z,99.90
2019-05-14T13:52:00.236Z,99.90
2019-05-14T13:54:31.637Z,99.90
2019-05-14T13:57:01.467Z,99.90
2019-05-14T13:59:31.224Z,99.90
2019-05-14T14:02:00.990Z,99.90
2019-05-14T14:04:30.713Z,99.90
2019-05-14T14:07:00.495Z,99.90
2019-05-14T14:09:31.565Z,99.90
2019-05-14T14:12:01.465Z,99.90
2019-05-14T14:14:31.205Z,99.90
2019-05-14T14:17:00.986Z,99.90
2019-05-14T14:19:30.788Z,99.90
2019-05-14T14:22:00.538Z,99.90
2019-05-14T14:24:30.292Z,99.90
2019-05-14T14:27:00.026Z,99.90
2019-05-14T14:29:32.855Z,99.90
2019-05-14T14:32:02.575Z,99.90
2019-05-14T14:34:32.354Z,99.90
2019-05-14T14:37:02.037Z,99.90
2019-05-14T14:39:31.777Z,99.90
2019-05-14T14:42:01.502Z,99.90
2019-05-14T14:44:31.221Z,99.90
2019-05-14T14:47:00.998Z,99.90
2019-05-14T14:49:30.787Z,99.90
2019-05-14T14:52:00.529Z,99.90
2019-05-14T14:54:30.272Z,99.90
2019-05-14T14:56:59.986Z,99.90
2019-05-14T14:59:30.525Z,99.90
2019-05-14T15:02:01.194Z,99.90
2019-05-14T15:04:30.960Z,99.90
2019-05-14T15:07:00.681Z,99.90
2019-05-14T15:09:30.415Z,99.90
2019-05-14T15:12:00.149Z,99.90
2019-05-14T15:14:31.555Z,99.90
2019-05-14T15:17:02.175Z,99.90
2019-05-14T15:19:31.892Z,99.90
2019-05-14T15:22:01.658Z,99.90
2019-05-14T15:24:31.367Z,99.90
2019-05-14T15:27:07.952Z,99.90
2019-05-14T15:29:32.829Z,99.90
2019-05-14T15:32:02.558Z,99.90
2019-05-14T15:34:32.351Z,99.90
2019-05-14T15:37:02.087Z,99.90
2019-05-14T15:39:31.805Z,99.90
2019-05-14T15:42:05.821Z,99.90
2019-05-14T15:44:47.634Z,99.90
2019-05-14T15:47:05.355Z,99.90
2019-05-14T15:49:35.096Z,99.90
2019-05-14T15:52:05.065Z,99.90
2019-05-14T15:54:45.614Z,99.90
2019-05-14T15:57:06.178Z,99.90
2019-05-14T15:59:39.065Z,99.90
2019-05-14T16:02:09.467Z,99.90
2019-05-14T16:04:39.320Z,99.90
2019-05-14T16:07:09.594Z,99.90
2019-05-14T16:09:39.879Z,99.90
2019-05-14T16:12:09.760Z,99.90
2019-05-14T16:14:39.529Z,99.90
2019-05-14T16:17:11.964Z,99.90
2019-05-14T16:19:40.632Z,99.90
2019-05-14T16:22:10.355Z,99.90
2019-05-14T16:24:55.744Z,99.90
2019-05-14T16:27:13.002Z,99.90
2019-05-14T16:29:45.964Z,99.90
2019-05-14T16:32:14.126Z,99.90
2019-05-14T16:34:43.880Z,99.90
2019-05-14T16:37:13.610Z,99.90
2019-05-14T16:39:43.347Z,99.90
2019-05-14T16:42:13.099Z,99.90
2019-05-14T16:44:42.831Z,99.90
2019-05-14T16:47:12.584Z,99.90
2019-05-14T16:49:42.302Z,99.90
2019-05-14T16:52:12.068Z,99.90
2019-05-14T16:54:41.784Z,99.90
2019-05-14T16:57:11.508Z,99.90
2019-05-14T16:59:41.408Z,99.90
2019-05-14T17:02:11.153Z,99.90
2019-05-14T17:04:40.921Z,99.90
2019-05-14T17:07:10.729Z,99.90
2019-05-14T17:09:40.495Z,99.90
2019-05-14T17:12:10.213Z,99.90
2019-05-14T17:14:39.961Z,99.90
2019-05-14T17:17:09.700Z,99.90
2019-05-14T17:19:39.436Z,99.90
2019-05-14T17:22:24.321Z,99.90
2019-05-14T17:24:40.852Z,99.90
2019-05-14T17:27:10.640Z,99.90
2019-05-14T17:29:40.355Z,99.90
2019-05-14T17:32:10.176Z,99.90
2019-05-14T17:34:40.059Z,99.90
2019-05-14T17:37:09.776Z,99.90
2019-05-14T17:39:39.541Z,99.90
2019-05-14T17:42:11.818Z,99.90
2019-05-14T17:44:40.877Z,99.90
2019-05-14T17:47:11.060Z,99.90
2019-05-14T17:49:40.844Z,99.90
2019-05-14T17:52:10.571Z,99.90
2019-05-14T17:54:42.043Z,99.90
2019-05-14T17:57:11.701Z,99.90
2019-05-14T17:59:41.438Z,99.90
2019-05-14T18:02:11.183Z,99.90
2019-05-14T18:04:41.068Z,99.90
2019-05-14T18:07:10.819Z,99.90
2019-05-14T18:09:40.574Z,99.90
2019-05-14T18:12:10.295Z,99.90
2019-05-14T18:14:40.051Z,99.90
2019-05-14T18:17:10.783Z,99.90
2019-05-14T18:19:40.541Z,99.90
2019-05-14T18:22:10.611Z,99.90
2019-05-14T18:24:40.336Z,99.90
2019-05-14T18:27:10.070Z,99.90
2019-05-14T18:29:39.820Z,99.90
2019-05-14T18:32:09.586Z,99.90
2019-05-14T18:34:41.087Z,99.90
2019-05-14T18:37:13.924Z,99.90
2019-05-14T18:39:42.420Z,99.90
2019-05-14T18:42:12.493Z,99.90
2019-05-14T18:44:43.230Z,99.90
2019-05-14T18:47:13.018Z,99.90
2019-05-14T18:49:42.757Z,99.90
2019-05-14T18:52:12.511Z,99.90
2019-05-14T18:54:42.255Z,99.90
2019-05-14T18:57:12.273Z,99.90
2019-05-14T18:59:42.046Z,99.90
2019-05-14T19:02:11.771Z,99.90
2019-05-14T19:04:41.921Z,99.90
2019-05-14T19:07:11.631Z,99.90
2019-05-14T19:09:42.424Z,99.90
2019-05-14T19:12:12.150Z,99.90
2019-05-14T19:14:41.903Z,99.90
2019-05-14T19:17:11.652Z,99.90
2019-05-14T19:19:41.394Z,99.90
2019-05-14T19:22:11.179Z,99.90
2019-05-14T19:24:41.046Z,99.90
2019-05-14T19:27:10.785Z,99.90
2019-05-14T19:29:41.460Z,99.90
2019-05-14T19:32:11.191Z,99.90
2019-05-14T19:34:40.994Z,99.90
2019-05-14T19:37:10.737Z,99.90
2019-05-14T19:39:40.479Z,99.90
2019-05-14T19:42:10.230Z,99.90
2019-05-14T19:44:40.546Z,99.90
2019-05-14T19:47:10.326Z,99.90
2019-05-14T19:49:40.075Z,99.90
2019-05-14T19:52:09.816Z,99.90
2019-05-14T19:54:39.561Z,99.90
2019-05-14T19:57:09.935Z,99.90
2019-05-14T19:59:39.954Z,99.90
2019-05-14T20:02:09.717Z,99.90
2019-05-14T20:04:40.437Z,99.90
2019-05-14T20:07:10.275Z,99.90
2019-05-14T20:09:40.107Z,99.90
2019-05-14T20:12:09.851Z,99.90
2019-05-14T20:14:39.592Z,99.90
2019-05-14T20:17:09.341Z,99.90
2019-05-14T20:19:39.745Z,99.90
2019-05-14T20:22:09.586Z,99.90
2019-05-14T20:24:41.648Z,99.90
2019-05-14T20:27:12.277Z,99.90
2019-05-14T20:29:43.255Z,99.90
2019-05-14T20:32:13.022Z,99.90
2019-05-14T20:34:42.765Z,99.90
2019-05-14T20:37:13.530Z,99.90
2019-05-14T20:39:43.255Z,99.90
2019-05-14T20:42:13.107Z,99.90
2019-05-14T20:44:42.865Z,99.90
2019-05-14T20:47:12.611Z,99.90
2019-05-14T20:49:42.337Z,99.90
2019-05-14T20:52:12.070Z,99.90
2019-05-14T20:54:41.839Z,99.90
2019-05-14T20:57:23.270Z,99.90
2019-05-14T20:59:43.093Z,99.90
2019-05-14T21:02:13.116Z,99.90
2019-05-14T21:04:42.865Z,99.90
2019-05-14T21:07:12.614Z,99.90
2019-05-14T21:09:42.331Z,99.90
2019-05-14T21:12:12.113Z,99.90
2019-05-14T21:14:41.835Z,99.90
2019-05-14T21:17:11.558Z,99.90
2019-05-14T21:19:41.295Z,99.90
2019-05-14T21:22:11.035Z,99.90
2019-05-14T21:24:40.799Z,99.90
2019-05-14T21:27:10.528Z,99.90
2019-05-14T21:29:40.311Z,99.90
2019-05-14T21:32:10.080Z,99.90
2019-05-14T21:34:39.783Z,99.90
2019-05-14T21:37:10.369Z,99.90
2019-05-14T21:39:40.934Z,99.90
2019-05-14T21:42:11.063Z,99.90
2019-05-14T21:44:40.973Z,99.90
2019-05-14T21:47:10.690Z,99.90
2019-05-14T21:49:40.435Z,99.90
2019-05-14T21:52:10.180Z,99.90
2019-05-14T21:54:39.959Z,99.90
2019-05-14T21:57:11.812Z,99.90
2019-05-14T21:59:41.082Z,99.90
2019-05-14T22:02:21.711Z,99.90
2019-05-14T22:04:42.745Z,99.90
2019-05-14T22:07:12.493Z,99.90
2019-05-14T22:09:42.227Z,99.90
2019-05-14T22:12:13.115Z,99.90
2019-05-14T22:14:42.840Z,99.90
2019-05-14T22:17:12.652Z,99.90
2019-05-14T22:19:42.350Z,99.90
2019-05-14T22:22:12.093Z,99.90
2019-05-14T22:24:42.000Z,99.90
2019-05-14T22:27:11.722Z,99.90
2019-05-14T22:29:41.471Z,99.90
2019-05-14T22:32:11.203Z,99.90
2019-05-14T22:34:41.391Z,99.90
2019-05-14T22:37:11.852Z,99.90
2019-05-14T22:39:41.574Z,99.90
2019-05-14T22:42:12.354Z,99.90
2019-05-14T22:44:42.085Z,99.90
2019-05-14T22:47:11.879Z,99.90
2019-05-14T22:49:41.616Z,99.90
2019-05-14T22:52:11.370Z,99.90
2019-05-14T22:54:41.136Z,99.90
2019-05-14T22:57:10.867Z,99.90
2019-05-14T22:59:40.618Z,99.90
2019-05-14T23:02:11.301Z,99.90
2019-05-14T23:04:42.154Z,99.90
2019-05-14T23:07:12.226Z,99.90
2019-05-14T23:09:41.963Z,99.90
2019-05-14T23:12:12.338Z,99.90
2019-05-14T23:14:42.169Z,99.90
2019-05-14T23:17:11.899Z,99.90
2019-05-14T23:19:41.672Z,99.90
2019-05-14T23:22:11.404Z,99.90
2019-05-14T23:24:41.148Z,99.90
2019-05-14T23:27:10.903Z,99.90
2019-05-14T23:29:40.631Z,99.90
2019-05-14T23:32:10.362Z,99.90
2019-05-14T23:34:40.103Z,99.90
2019-05-14T23:37:09.957Z,99.90
2019-05-14T23:39:39.664Z,99.90
2019-05-14T23:42:09.892Z,99.90
2019-05-14T23:44:39.857Z,99.90
2019-05-14T23:47:09.600Z,99.90
2019-05-14T23:49:39.355Z,99.90
2019-05-14T23:52:09.079Z,99.90
2019-05-14T23:54:38.852Z,99.90
2019-05-14T23:57:08.953Z,99.90
2019-05-14T23:59:39.640Z,99.90
